Terminal Aerodrome Forecast
Issued by NWS Wilmington, OH

Home | Current Version | Previous Version | Text Only | Print | Product List | Glossary On
Versions: 1 2 3 4 5 6 7 8 9 10 11 12 13 14 15
269
FTUS41 KILN 251734
TAFILN
TAF
KILN 251734Z 2518/2618 23011KT P6SM SCT035
     FM260000 27005KT P6SM SCT250
     FM260900 28003KT 5SM BR BKN012
     FM261500 VRB03KT P6SM SCT022=

USA.gov is the U.S. government's official web portal to all federal, state and local government web resources and services.